createdAt,value
2018-04-24T00:00:54.376Z,12.00
2018-04-24T00:04:04.197Z,11.90
2018-04-24T00:07:14.398Z,11.90
2018-04-24T00:10:24.216Z,12.00
2018-04-24T00:13:34.860Z,12.00
2018-04-24T00:16:44.800Z,11.90
2018-04-24T00:19:55.209Z,11.80
2018-04-24T00:23:05.519Z,11.60
2018-04-24T00:26:15.820Z,11.60
2018-04-24T00:29:26.015Z,11.60
2018-04-24T00:32:36.391Z,11.50
2018-04-24T00:35:46.241Z,11.30
2018-04-24T00:38:56.150Z,11.40
2018-04-24T00:42:06.019Z,11.40
2018-04-24T00:45:16.198Z,11.30
2018-04-24T00:48:26.139Z,11.30
2018-04-24T00:51:35.989Z,11.20
2018-04-24T00:54:46.074Z,11.20
2018-04-24T00:57:56.292Z,11.20
2018-04-24T01:01:06.712Z,11.20
2018-04-24T01:04:16.773Z,11.10
2018-04-24T01:07:27.062Z,11.00
2018-04-24T01:10:37.312Z,11.00
2018-04-24T01:13:47.675Z,10.80
2018-04-24T01:16:58.024Z,10.70
2018-04-24T01:20:07.883Z,10.70
2018-04-24T01:23:18.259Z,10.70
2018-04-24T01:26:28.481Z,10.80
2018-04-24T01:29:38.415Z,10.70
2018-04-24T01:32:48.386Z,10.50
2018-04-24T01:35:58.257Z,10.50
2018-04-24T01:39:09.219Z,10.50
2018-04-24T01:42:19.762Z,10.50
2018-04-24T01:45:30.673Z,10.40
2018-04-24T01:48:41.018Z,10.30
2018-04-24T01:51:50.968Z,10.20
2018-04-24T01:55:01.348Z,10.30
2018-04-24T01:58:11.523Z,10.30
2018-04-24T02:01:21.547Z,10.30
2018-04-24T02:04:32.113Z,10.30
2018-04-24T02:07:42.177Z,10.10
2018-04-24T02:10:53.221Z,10.10
2018-04-24T02:14:03.026Z,10.00
2018-04-24T02:17:13.337Z,10.10
2018-04-24T02:20:24.178Z,10.00
2018-04-24T02:23:34.813Z,10.00
2018-04-24T02:26:45.202Z,10.20
2018-04-24T02:29:55.525Z,10.10
2018-04-24T02:33:06.189Z,10.50
2018-04-24T02:36:16.898Z,10.10
2018-04-24T02:39:27.476Z,10.00
2018-04-24T02:42:37.919Z,10.00
2018-04-24T02:45:48.316Z,10.10
2018-04-24T02:48:58.323Z,10.00
2018-04-24T02:52:09.092Z,9.90
2018-04-24T02:55:19.074Z,9.90
2018-04-24T02:58:28.982Z,9.70
2018-04-24T03:01:38.972Z,9.70
2018-04-24T03:04:49.987Z,9.70
2018-04-24T03:08:00.224Z,9.70
2018-04-24T03:11:11.085Z,9.70
2018-04-24T03:14:22.515Z,9.70
2018-04-24T03:17:32.555Z,9.70
2018-04-24T03:20:42.762Z,9.70
2018-04-24T03:23:52.988Z,9.60
2018-04-24T03:27:03.263Z,9.60
2018-04-24T03:30:13.968Z,9.50
2018-04-24T03:33:24.032Z,9.50
2018-04-24T03:36:34.213Z,9.30
2018-04-24T03:39:45.064Z,9.40
2018-04-24T03:42:55.836Z,9.40
2018-04-24T03:46:06.301Z,9.40
2018-04-24T03:49:16.544Z,9.40
2018-04-24T03:52:26.990Z,9.50
2018-04-24T03:55:36.801Z,9.50
2018-04-24T03:58:47.144Z,9.60
2018-04-24T04:01:57.328Z,9.70
2018-04-24T04:05:07.509Z,9.80
2018-04-24T04:08:17.720Z,9.80
2018-04-24T04:11:28.438Z,9.90
2018-04-24T04:14:38.862Z,9.90
2018-04-24T04:18:01.055Z,10.00
2018-04-24T04:21:22.385Z,10.00
2018-04-24T04:24:46.806Z,10.00
2018-04-24T04:27:58.797Z,10.00
2018-04-24T04:31:09.583Z,10.00
2018-04-24T04:34:20.005Z,9.90
2018-04-24T04:37:29.999Z,10.00
2018-04-24T04:40:40.068Z,10.10
2018-04-24T04:43:50.077Z,10.10
2018-04-24T04:47:00.039Z,10.10
2018-04-24T04:50:11.274Z,10.20
2018-04-24T04:53:21.466Z,10.20
2018-04-24T04:56:32.555Z,10.20
2018-04-24T04:59:42.981Z,10.20
2018-04-24T05:02:53.075Z,10.30
2018-04-24T05:06:03.237Z,10.30
2018-04-24T05:09:13.672Z,10.30
2018-04-24T05:12:24.513Z,10.50
2018-04-24T05:15:34.929Z,10.50
2018-04-24T05:18:45.111Z,10.60
2018-04-24T05:21:55.495Z,10.70
2018-04-24T05:25:05.800Z,10.80
2018-04-24T05:28:15.394Z,10.80
2018-04-24T05:31:25.759Z,10.80
2018-04-24T05:34:35.592Z,11.00
2018-04-24T05:37:46.134Z,11.20
2018-04-24T05:40:56.538Z,11.20
2018-04-24T05:47:18.339Z,11.40
2018-04-24T05:50:28.179Z,11.50
2018-04-24T05:53:38.343Z,11.60
2018-04-24T05:56:48.951Z,11.70
2018-04-24T05:59:59.733Z,11.90
2018-04-24T06:03:09.947Z,12.10
2018-04-24T06:06:20.638Z,12.30
2018-04-24T06:09:31.049Z,12.20
2018-04-24T06:12:42.464Z,12.40
2018-04-24T06:15:52.537Z,12.50
2018-04-24T06:19:02.720Z,12.60
2018-04-24T06:22:13.024Z,12.70
2018-04-24T06:25:23.824Z,12.80
2018-04-24T06:28:34.375Z,12.80
2018-04-24T06:31:44.502Z,12.80
2018-04-24T06:34:54.368Z,12.80
2018-04-24T06:38:04.752Z,12.80
2018-04-24T06:41:14.741Z,12.90
2018-04-24T06:44:25.279Z,12.90
2018-04-24T06:47:35.304Z,12.90
2018-04-24T06:50:45.512Z,12.90
2018-04-24T06:53:56.170Z,13.10
2018-04-24T06:57:06.329Z,13.20
2018-04-24T07:00:16.446Z,13.40
2018-04-24T07:03:26.687Z,13.50
2018-04-24T07:06:37.139Z,13.60
2018-04-24T07:09:47.751Z,13.70
2018-04-24T07:12:57.596Z,13.90
2018-04-24T07:16:08.231Z,14.00
2018-04-24T07:19:18.305Z,14.00
2018-04-24T07:22:28.317Z,14.00
2018-04-24T07:25:38.584Z,14.10
2018-04-24T07:28:48.936Z,14.30
2018-04-24T07:31:58.882Z,14.30
2018-04-24T07:35:09.362Z,14.30
2018-04-24T07:38:19.730Z,14.40
2018-04-24T07:41:30.069Z,14.50
2018-04-24T07:44:40.566Z,14.70
2018-04-24T07:47:50.788Z,14.70
2018-04-24T07:51:00.644Z,14.80
2018-04-24T07:54:11.005Z,14.90
2018-04-24T07:57:21.093Z,15.10
2018-04-24T08:00:31.453Z,15.30
2018-04-24T08:03:41.846Z,15.20
2018-04-24T08:06:51.808Z,14.90
2018-04-24T08:10:04.305Z,15.00
2018-04-24T08:13:15.648Z,15.10
2018-04-24T08:16:26.231Z,15.00
2018-04-24T08:19:36.407Z,15.10
2018-04-24T08:22:47.309Z,15.10
2018-04-24T08:25:57.717Z,15.00
2018-04-24T08:29:08.071Z,15.00
2018-04-24T08:32:19.374Z,15.10
2018-04-24T08:35:29.340Z,15.00
2018-04-24T08:38:40.424Z,15.30
2018-04-24T08:41:51.936Z,15.40
2018-04-24T08:45:02.479Z,15.40
2018-04-24T08:48:12.653Z,15.50
2018-04-24T08:51:22.677Z,15.50
2018-04-24T08:54:33.807Z,15.50
2018-04-24T08:57:44.578Z,15.50
2018-04-24T09:00:55.583Z,15.60
2018-04-24T09:04:05.982Z,15.60
2018-04-24T09:07:15.999Z,15.60
2018-04-24T09:10:27.400Z,15.70
2018-04-24T09:13:37.451Z,15.70
2018-04-24T09:16:48.027Z,15.80
2018-04-24T09:19:58.049Z,16.00
2018-04-24T09:23:08.165Z,16.30
2018-04-24T09:26:17.927Z,16.30
2018-04-24T09:29:28.099Z,16.40
2018-04-24T09:32:38.119Z,16.40
2018-04-24T09:35:48.145Z,16.30
2018-04-24T09:38:58.595Z,16.20
2018-04-24T09:42:09.237Z,16.30
2018-04-24T09:45:19.710Z,16.40
2018-04-24T09:48:30.505Z,16.50
2018-04-24T09:51:40.679Z,16.40
2018-04-24T09:54:50.676Z,16.60
2018-04-24T09:58:01.514Z,16.90
2018-04-24T10:01:12.198Z,16.90
2018-04-24T10:04:22.285Z,17.00
2018-04-24T10:07:32.592Z,17.00
2018-04-24T10:10:43.197Z,17.00
2018-04-24T10:13:53.263Z,17.00
2018-04-24T10:17:03.045Z,17.00
2018-04-24T10:20:13.792Z,17.10
2018-04-24T10:23:24.026Z,17.00
2018-04-24T10:26:34.281Z,17.10
2018-04-24T10:29:44.504Z,17.10
2018-04-24T10:32:54.527Z,17.30
2018-04-24T10:36:04.522Z,17.50
2018-04-24T10:39:15.090Z,17.40
2018-04-24T10:42:25.357Z,17.60
2018-04-24T10:45:35.610Z,17.50
2018-04-24T10:48:45.351Z,17.60
2018-04-24T10:51:55.274Z,17.60
2018-04-24T10:55:05.786Z,17.70
2018-04-24T10:58:16.395Z,17.80
2018-04-24T11:01:26.616Z,17.90
2018-04-24T11:04:37.227Z,18.20
2018-04-24T11:07:47.753Z,18.20
2018-04-24T11:10:58.659Z,18.10
2018-04-24T11:14:08.511Z,18.30
2018-04-24T11:17:19.017Z,18.10
2018-04-24T11:20:29.162Z,18.10
2018-04-24T11:23:39.188Z,17.90
2018-04-24T11:26:49.399Z,18.00
2018-04-24T11:30:00.272Z,18.10
2018-04-24T11:33:10.093Z,18.20
2018-04-24T11:36:20.601Z,18.30
2018-04-24T11:39:30.663Z,18.40
2018-04-24T11:42:40.842Z,18.40
2018-04-24T11:45:50.826Z,18.60
2018-04-24T11:49:00.766Z,18.70
2018-04-24T11:52:11.546Z,18.80
2018-04-24T11:55:22.085Z,18.80
2018-04-24T11:58:32.661Z,18.70
2018-04-24T12:01:43.434Z,18.70
2018-04-24T12:04:53.414Z,18.50
2018-04-24T12:08:03.856Z,18.90
2018-04-24T12:11:14.021Z,19.00
2018-04-24T12:14:23.946Z,18.80
2018-04-24T12:17:34.214Z,18.80
2018-04-24T12:20:44.462Z,19.00
2018-04-24T12:23:54.741Z,19.20
2018-04-24T12:27:05.414Z,19.10
2018-04-24T12:30:15.320Z,19.10
2018-04-24T12:33:25.911Z,19.10
2018-04-24T12:36:36.046Z,19.20
2018-04-24T12:39:46.552Z,19.30
2018-04-24T12:42:56.769Z,19.30
2018-04-24T12:46:06.727Z,19.30
2018-04-24T12:49:16.675Z,19.20
2018-04-24T12:52:27.326Z,19.20
2018-04-24T12:55:37.243Z,19.30
2018-04-24T12:58:48.281Z,19.20
2018-04-24T13:01:58.437Z,19.20
2018-04-24T13:05:08.463Z,19.20
2018-04-24T13:08:19.112Z,19.00
2018-04-24T13:11:30.570Z,19.10
2018-04-24T13:14:40.818Z,19.10
2018-04-24T13:17:50.917Z,19.10
2018-04-24T13:21:01.094Z,19.00
2018-04-24T13:24:11.085Z,19.10
2018-04-24T13:27:20.678Z,19.00
2018-04-24T13:30:31.838Z,19.00
2018-04-24T13:33:42.404Z,19.00
2018-04-24T13:36:52.816Z,18.80
2018-04-24T13:40:03.666Z,18.70
2018-04-24T13:43:14.603Z,18.70
2018-04-24T13:46:25.472Z,18.60
2018-04-24T13:49:36.012Z,18.40
2018-04-24T13:52:46.183Z,18.40
2018-04-24T13:55:55.894Z,18.40
2018-04-24T13:59:05.723Z,18.40
2018-04-24T14:02:15.786Z,18.30
2018-04-24T14:05:25.957Z,18.30
2018-04-24T14:08:36.039Z,18.30
2018-04-24T14:11:46.046Z,18.30
2018-04-24T14:14:56.036Z,18.20
2018-04-24T14:18:05.983Z,18.30
2018-04-24T14:21:15.908Z,18.20
2018-04-24T14:24:26.617Z,18.30
2018-04-24T14:27:36.889Z,18.30
2018-04-24T14:30:46.841Z,18.30
2018-04-24T14:33:56.631Z,18.30
2018-04-24T14:37:06.589Z,18.20
2018-04-24T14:40:17.652Z,18.10
2018-04-24T14:43:28.404Z,18.10
2018-04-24T14:46:38.300Z,18.00
2018-04-24T14:49:48.011Z,18.00
2018-04-24T14:52:57.893Z,18.00
2018-04-24T14:56:08.471Z,17.90
2018-04-24T14:59:18.559Z,17.90
2018-04-24T15:02:28.408Z,17.90
2018-04-24T15:05:38.270Z,18.00
2018-04-24T15:08:48.043Z,18.00
2018-04-24T15:11:58.000Z,18.00
2018-04-24T15:15:08.808Z,17.80
2018-04-24T15:18:18.997Z,17.80
2018-04-24T15:21:29.008Z,17.80
2018-04-24T15:24:39.720Z,17.80
2018-04-24T15:27:49.452Z,17.70
2018-04-24T15:30:59.386Z,17.70
2018-04-24T15:34:09.414Z,17.70
2018-04-24T15:37:19.363Z,17.70
2018-04-24T15:40:29.433Z,17.90
2018-04-24T15:43:39.233Z,17.90
2018-04-24T15:46:49.397Z,18.00
2018-04-24T15:50:00.353Z,17.90
2018-04-24T15:53:11.562Z,17.90
2018-04-24T15:56:22.606Z,18.00
2018-04-24T15:59:33.820Z,18.00
2018-04-24T16:02:44.502Z,18.00
2018-04-24T16:05:54.772Z,18.00
2018-04-24T16:09:06.761Z,17.80
2018-04-24T16:12:16.699Z,17.80
2018-04-24T16:15:28.119Z,17.80
2018-04-24T16:18:38.157Z,17.80
2018-04-24T16:21:48.320Z,17.70
2018-04-24T16:24:58.091Z,17.70
2018-04-24T16:28:08.146Z,17.70
2018-04-24T16:31:18.739Z,17.70
2018-04-24T16:34:29.064Z,17.70
2018-04-24T16:37:39.319Z,17.60
2018-04-24T16:40:49.593Z,17.60
2018-04-24T16:43:59.879Z,17.60
2018-04-24T16:47:10.358Z,17.60
2018-04-24T16:50:20.392Z,17.60
2018-04-24T16:53:31.118Z,17.60
2018-04-24T16:56:41.591Z,17.60
2018-04-24T16:59:52.451Z,17.60
2018-04-24T17:03:02.823Z,17.50
2018-04-24T17:06:13.394Z,17.50
2018-04-24T17:09:23.999Z,17.50
2018-04-24T17:12:33.818Z,17.40
2018-04-24T17:15:44.150Z,17.30
2018-04-24T17:18:54.095Z,17.30
2018-04-24T17:22:03.908Z,17.30
2018-04-24T17:25:13.691Z,17.20
2018-04-24T17:28:23.738Z,17.20
2018-04-24T17:31:34.502Z,17.10
2018-04-24T17:34:44.773Z,17.10
2018-04-24T17:37:55.619Z,17.00
2018-04-24T17:41:06.409Z,17.00
2018-04-24T17:44:16.710Z,16.90
2018-04-24T17:47:29.214Z,16.90
2018-04-24T17:50:39.061Z,16.90
2018-04-24T17:53:49.296Z,16.80
2018-04-24T17:57:00.391Z,16.80
2018-04-24T18:00:11.198Z,16.80
2018-04-24T18:03:21.518Z,16.80
2018-04-24T18:06:32.314Z,16.80
2018-04-24T18:09:42.879Z,16.80
2018-04-24T18:12:53.458Z,16.80
2018-04-24T18:16:03.289Z,16.80
2018-04-24T18:19:13.491Z,16.80
2018-04-24T18:22:23.362Z,16.80
2018-04-24T18:25:33.779Z,16.80
2018-04-24T18:28:44.377Z,16.80
2018-04-24T18:31:54.925Z,16.70
2018-04-24T18:35:04.715Z,16.70
2018-04-24T18:38:15.802Z,16.60
2018-04-24T18:41:25.749Z,16.60
2018-04-24T18:44:36.246Z,16.50
2018-04-24T18:47:47.052Z,16.40
2018-04-24T18:50:57.478Z,16.40
2018-04-24T18:54:08.081Z,16.30
2018-04-24T18:57:19.034Z,16.20
2018-04-24T19:00:29.571Z,16.20
2018-04-24T19:03:40.110Z,16.10
2018-04-24T19:06:50.257Z,16.00
2018-04-24T19:10:00.830Z,15.90
2018-04-24T19:13:10.956Z,15.90
2018-04-24T19:16:22.322Z,15.80
2018-04-24T19:19:32.066Z,15.80
2018-04-24T19:22:42.440Z,15.70
2018-04-24T19:25:52.226Z,15.50
2018-04-24T19:29:02.057Z,15.30
2018-04-24T19:32:18.262Z,15.20
2018-04-24T19:35:28.187Z,15.20
2018-04-24T19:38:38.148Z,15.20
2018-04-24T19:41:49.621Z,15.20
2018-04-24T19:45:00.668Z,15.10
2018-04-24T19:48:16.109Z,15.10
2018-04-24T19:51:26.129Z,15.00
2018-04-24T19:54:35.697Z,14.80
2018-04-24T19:57:45.951Z,14.60
2018-04-24T20:00:55.935Z,14.30
2018-04-24T20:04:06.344Z,14.20
2018-04-24T20:07:16.215Z,14.10
2018-04-24T20:10:26.719Z,13.90
2018-04-24T20:13:36.504Z,14.00
2018-04-24T20:16:46.566Z,14.00
2018-04-24T20:19:56.472Z,14.00
2018-04-24T20:23:06.458Z,13.90
2018-04-24T20:26:17.202Z,13.80
2018-04-24T20:29:27.202Z,13.80
2018-04-24T20:32:38.240Z,13.50
2018-04-24T20:35:48.498Z,13.50
2018-04-24T20:38:58.494Z,13.40
2018-04-24T20:42:09.462Z,13.20
2018-04-24T20:45:19.897Z,13.20
2018-04-24T20:48:29.644Z,13.20
2018-04-24T20:51:40.133Z,13.20
2018-04-24T20:54:49.988Z,13.10
2018-04-24T20:57:59.787Z,13.10
2018-04-24T21:01:09.594Z,13.10
2018-04-24T21:04:19.659Z,13.00
2018-04-24T21:07:30.488Z,12.80
2018-04-24T21:10:40.794Z,12.80
2018-04-24T21:13:51.508Z,12.60
2018-04-24T21:17:01.703Z,12.60
2018-04-24T21:20:11.551Z,12.60
2018-04-24T21:23:21.249Z,12.60
2018-04-24T21:26:32.249Z,12.50
2018-04-24T21:29:42.637Z,12.50
2018-04-24T21:32:52.743Z,12.40
2018-04-24T21:36:03.459Z,12.40
2018-04-24T21:39:13.751Z,12.40
2018-04-24T21:42:23.783Z,12.30
2018-04-24T21:45:33.876Z,12.30
2018-04-24T21:48:44.864Z,12.40
2018-04-24T21:51:55.131Z,12.30
2018-04-24T21:55:05.376Z,12.30
2018-04-24T21:58:15.641Z,12.30
2018-04-24T22:01:26.720Z,12.30
2018-04-24T22:04:37.142Z,12.30
2018-04-24T22:07:48.591Z,12.20
2018-04-24T22:10:59.226Z,12.20
2018-04-24T22:14:09.661Z,12.20
2018-04-24T22:17:20.050Z,12.20
2018-04-24T22:20:30.092Z,12.20
2018-04-24T22:23:40.426Z,12.20
2018-04-24T22:26:50.367Z,12.10
2018-04-24T22:30:00.466Z,12.00
2018-04-24T22:33:10.455Z,12.00
2018-04-24T22:36:20.316Z,12.00
2018-04-24T22:39:30.474Z,12.00
2018-04-24T22:42:40.512Z,12.00
2018-04-24T22:45:51.573Z,11.90
2018-04-24T22:49:01.882Z,11.90
2018-04-24T22:52:13.065Z,11.80
2018-04-24T22:55:23.295Z,11.80
2018-04-24T22:58:33.297Z,11.90
2018-04-24T23:01:43.270Z,11.80
2018-04-24T23:04:53.373Z,11.80
2018-04-24T23:08:04.113Z,11.70
2018-04-24T23:11:25.198Z,11.60
2018-04-24T23:14:46.514Z,11.60
2018-04-24T23:18:08.478Z,11.60
2018-04-24T23:21:17.579Z,11.50
2018-04-24T23:24:27.540Z,11.60
2018-04-24T23:27:37.751Z,11.60
2018-04-24T23:30:47.604Z,11.60
2018-04-24T23:33:58.471Z,11.50
2018-04-24T23:37:08.268Z,11.60
2018-04-24T23:40:18.086Z,11.50
2018-04-24T23:43:29.599Z,11.40
2018-04-24T23:46:39.429Z,11.40
2018-04-24T23:49:49.281Z,11.30
2018-04-24T23:52:59.141Z,11.30
2018-04-24T23:56:10.266Z,11.40
2018-04-24T23:59:20.532Z,11.30
